Time;durP1;ratioP1;P1;durP2;ratioP2;P2;SDS_P1;SDS_P2;PMS_P1;PMS_P2;Temp;Humidity;BMP_temperature;BMP_pressure;BME280_temperature;BME280_humidity;BME280_pressure;Samples;Min_cycle;Max_cycle;Signal;HPM_P1;HPM_P2
2021/01/25 00:01:47;;;;;;;;;;;;;;;;;;5055272;28;1963;-76
2021/01/25 00:04:13;;;;;;;;;;;;;;;;;;5056697;28;945;-78
2021/01/25 00:06:38;;;;;;;;;;;;;;;;;;5056612;28;1416;-76
2021/01/25 00:09:03;;;;;;;;;;;;;;;;;;5055397;28;1308;-76
2021/01/25 00:11:28;;;;;;;;;;;;;;;;;;5056917;28;876;-76
2021/01/25 00:13:54;;;;;;;;;;;;;;;;;;5056362;28;888;-78
2021/01/25 00:16:19;;;;;;;;;;;;;;;;;;5056137;28;1290;-77
2021/01/25 00:18:44;;;;;;;;;;;;;;;;;;5056454;28;818;-75
2021/01/25 00:21:09;;;;;;;;;;;;;;;;;;5055097;28;1979;-76
2021/01/25 00:23:35;;;;;;;;;;;;;;;;;;5056221;28;967;-76
2021/01/25 00:26:00;;;;;;;;;;;;;;;;;;5055005;28;1373;-77
2021/01/25 00:28:25;;;;;;;;;;;;;;;;;;5056036;28;872;-76
2021/01/25 00:30:50;;;;;;;;;;;;;;;;;;5055176;28;905;-77
2021/01/25 00:33:16;;;;;;;;;;;;;;;;;;5054719;28;1202;-77
2021/01/25 00:35:41;;;;;;;;;;;;;;;;;;5056191;28;1428;-77
2021/01/25 00:38:06;;;;;;;;;;;;;;;;;;5056075;28;955;-77
2021/01/25 00:40:31;;;;;;;;;;;;;;;;;;5054720;28;829;-76
2021/01/25 00:42:57;;;;;;;;;;;;;;;;;;5055773;28;1894;-77
2021/01/25 00:45:22;;;;;;;;;;;;;;;;;;5055834;28;1409;-77
2021/01/25 00:47:47;;;;;;;;;;;;;;;;;;5055916;28;905;-77
2021/01/25 00:50:12;;;;;;;;;;;;;;;;;;5054616;28;1292;-76
2021/01/25 00:52:37;;;;;;;;;;;;;;;;;;5054224;28;869;-76
2021/01/25 00:55:04;;;;;;;;;;;;;;;;;;5054809;28;1412;-78
2021/01/25 00:57:29;;;;;;;;;;;;;;;;;;5055720;28;866;-78
2021/01/25 00:59:54;;;;;;;;;;;;;;;;;;5055643;28;1059;-76
2021/01/25 01:02:19;;;;;;;;;;;;;;;;;;5055429;28;1903;-76
2021/01/25 01:04:45;;;;;;;;;;;;;;;;;;5055491;28;1354;-79
2021/01/25 01:07:10;;;;;;;;;;;;;;;;;;5055531;28;874;-78
2021/01/25 01:09:35;;;;;;;;;;;;;;;;;;5055560;28;786;-76
2021/01/25 01:12:00;;;;;;;;;;;;;;;;;;5054125;28;837;-78
2021/01/25 01:14:25;;;;;;;;;;;;;;;;;;5055157;28;877;-78
2021/01/25 01:16:51;;;;;;;;;;;;;;;;;;5055255;28;1318;-77
2021/01/25 01:19:16;;;;;;;;;;;;;;;;;;5055292;28;923;-78
2021/01/25 01:21:41;;;;;;;;;;;;;;;;;;5055371;28;1902;-76
2021/01/25 01:24:07;;;;;;;;;;;;;;;;;;5055354;28;940;-78
2021/01/25 01:26:32;;;;;;;;;;;;;;;;;;5055111;28;1410;-78
2021/01/25 01:28:57;;;;;;;;;;;;;;;;;;5055007;28;870;-78
2021/01/25 01:31:22;;;;;;;;;;;;;;;;;;5055068;28;869;-76
2021/01/25 01:33:48;;;;;;;;;;;;;;;;;;5053631;28;1725;-76
2021/01/25 01:36:13;;;;;;;;;;;;;;;;;;5053439;28;1702;-75
2021/01/25 01:38:39;;;;;;;;;;;;;;;;;;5053713;28;1223;-76
2021/01/25 01:41:04;;;;;;;;;;;;;;;;;;5053586;28;1033;-78
2021/01/25 01:43:29;;;;;;;;;;;;;;;;;;5054839;28;1866;-76
2021/01/25 01:45:54;;;;;;;;;;;;;;;;;;5054599;28;1389;-77
2021/01/25 01:48:21;;;;;;;;;;;;;;;;;;5054596;28;830;-77
2021/01/25 01:50:46;;;;;;;;;;;;;;;;;;5053435;28;1423;-76
2021/01/25 01:53:11;;;;;;;;;;;;;;;;;;5053270;28;826;-78
2021/01/25 01:55:37;;;;;;;;;;;;;;;;;;5054553;28;1290;-77
2021/01/25 01:58:03;;;;;;;;;;;;;;;;;;5054813;28;1000;-78
2021/01/25 02:00:28;;;;;;;;;;;;;;;;;;5054456;28;901;-79
2021/01/25 02:02:53;;;;;;;;;;;;;;;;;;5053199;28;1894;-77
2021/01/25 02:05:18;;;;;;;;;;;;;;;;;;5054620;28;1412;-78
2021/01/25 02:07:46;;;;;;;;;;;;;;;;;;5052851;28;1330;-77
2021/01/25 02:10:12;;;;;;;;;;;;;;;;;;5054567;28;952;-76
2021/01/25 02:12:37;;;;;;;;;;;;;;;;;;5054365;28;912;-79
2021/01/25 02:15:03;;;;;;;;;;;;;;;;;;5054573;28;1405;-77
2021/01/25 02:17:28;;;;;;;;;;;;;;;;;;5053230;28;1755;-77
2021/01/25 02:20:05;;;;;;;;;;;;;;;;;;5053408;28;1319;-78
2021/01/25 02:22:43;;;;;;;;;;;;;;;;;;5052826;28;1977;-78
2021/01/25 02:25:16;;;;;;;;;;;;;;;;;;5054381;28;1373;-76
2021/01/25 02:27:45;;;;;;;;;;;;;;;;;;5053102;28;1631;-77
2021/01/25 02:30:11;;;;;;;;;;;;;;;;;;5054336;28;858;-77
2021/01/25 02:32:37;;;;;;;;;;;;;;;;;;5052897;28;1192;-77
2021/01/25 02:35:06;;;;;;;;;;;;;;;;;;5053251;28;1314;-78
2021/01/25 02:37:32;;;;;;;;;;;;;;;;;;5054149;28;884;-76
2021/01/25 02:39:59;;;;;;;;;;;;;;;;;;5054323;28;872;-76
2021/01/25 02:42:25;;;;;;;;;;;;;;;;;;5053649;28;1963;-76
2021/01/25 02:44:51;;;;;;;;;;;;;;;;;;5054201;28;1396;-77
2021/01/25 02:47:18;;;;;;;;;;;;;;;;;;5052863;28;2746;-77
2021/01/25 02:49:43;;;;;;;;;;;;;;;;;;5054214;28;818;-76
2021/01/25 02:52:10;;;;;;;;;;;;;;;;;;5054111;28;853;-78
2021/01/25 02:54:35;;;;;;;;;;;;;;;;;;5052540;28;1489;-78
2021/01/25 02:57:01;;;;;;;;;;;;;;;;;;5052881;28;1363;-76
2021/01/25 02:59:26;;;;;;;;;;;;;;;;;;5054065;28;992;-77
2021/01/25 03:01:52;;;;;;;;;;;;;;;;;;5054041;28;1894;-76
2021/01/25 03:04:17;;;;;;;;;;;;;;;;;;5053645;28;796;-77
2021/01/25 03:06:43;;;;;;;;;;;;;;;;;;5053865;28;1433;-77
2021/01/25 03:09:08;;;;;;;;;;;;;;;;;;5053971;28;848;-78
2021/01/25 03:11:33;;;;;;;;;;;;;;;;;;5054158;28;780;-78
2021/01/25 03:14:06;;;;;;;;;;;;;;;;;;5053748;28;944;-76
2021/01/25 03:16:31;;;;;;;;;;;;;;;;;;5052248;28;1345;-76
2021/01/25 03:18:56;;;;;;;;;;;;;;;;;;5055789;28;1003;-76
2021/01/25 03:21:22;;;;;;;;;;;;;;;;;;5057516;28;2044;-78
2021/01/25 03:23:47;;;;;;;;;;;;;;;;;;5056097;28;851;-77
2021/01/25 03:26:12;;;;;;;;;;;;;;;;;;5057238;28;1338;-77
2021/01/25 03:28:37;;;;;;;;;;;;;;;;;;5057555;28;897;-77
2021/01/25 03:31:02;;;;;;;;;;;;;;;;;;5056089;28;883;-76
2021/01/25 03:33:28;;;;;;;;;;;;;;;;;;5057259;28;867;-77
2021/01/25 03:35:53;;;;;;;;;;;;;;;;;;5057050;28;1345;-77
2021/01/25 03:38:18;;;;;;;;;;;;;;;;;;5056084;28;992;-76
2021/01/25 03:40:43;;;;;;;;;;;;;;;;;;5057205;28;834;-76
2021/01/25 03:43:12;;;;;;;;;;;;;;;;;;5055668;28;1964;-76
2021/01/25 03:45:37;;;;;;;;;;;;;;;;;;5056999;28;1341;-77
2021/01/25 03:48:02;;;;;;;;;;;;;;;;;;5057121;28;873;-77
2021/01/25 03:50:27;;;;;;;;;;;;;;;;;;5057006;28;851;-78
2021/01/25 03:52:53;;;;;;;;;;;;;;;;;;5055329;28;1191;-77
2021/01/25 03:55:18;;;;;;;;;;;;;;;;;;5056819;28;1305;-77
2021/01/25 03:57:43;;;;;;;;;;;;;;;;;;5056827;28;1130;-78
2021/01/25 04:00:08;;;;;;;;;;;;;;;;;;5055668;28;2241;-78
2021/01/25 04:02:34;;;;;;;;;;;;;;;;;;5055326;28;1901;-78
2021/01/25 04:04:59;;;;;;;;;;;;;;;;;;5056820;28;1377;-78
2021/01/25 04:07:25;;;;;;;;;;;;;;;;;;5055471;28;1211;-78
2021/01/25 04:09:50;;;;;;;;;;;;;;;;;;5055665;28;948;-78
2021/01/25 04:12:15;;;;;;;;;;;;;;;;;;5056630;28;889;-78
2021/01/25 04:14:40;;;;;;;;;;;;;;;;;;5056677;28;1341;-78
2021/01/25 04:17:06;;;;;;;;;;;;;;;;;;5056533;28;888;-79
2021/01/25 04:19:31;;;;;;;;;;;;;;;;;;5056519;28;878;-78
2021/01/25 04:21:56;;;;;;;;;;;;;;;;;;5054893;28;1898;-78
2021/01/25 04:24:21;;;;;;;;;;;;;;;;;;5056288;28;825;-78
2021/01/25 04:26:47;;;;;;;;;;;;;;;;;;5056406;28;1306;-78
2021/01/25 04:29:12;;;;;;;;;;;;;;;;;;5056311;28;794;-79
2021/01/25 04:31:38;;;;;;;;;;;;;;;;;;5054879;28;1662;-79
2021/01/25 04:34:03;;;;;;;;;;;;;;;;;;5054841;28;1237;-78
2021/01/25 04:36:29;;;;;;;;;;;;;;;;;;5054994;28;1310;-79
2021/01/25 04:38:54;;;;;;;;;;;;;;;;;;5056139;28;873;-79
2021/01/25 04:41:19;;;;;;;;;;;;;;;;;;5056219;28;1969;-79
2021/01/25 04:43:46;;;;;;;;;;;;;;;;;;5055948;28;1027;-78
2021/01/25 04:46:12;;;;;;;;;;;;;;;;;;5054677;28;1459;-79
2021/01/25 04:48:39;;;;;;;;;;;;;;;;;;5055898;28;912;-79
2021/01/25 04:51:04;;;;;;;;;;;;;;;;;;5056055;28;859;-79
2021/01/25 04:53:30;;;;;;;;;;;;;;;;;;5055662;28;1063;-78
2021/01/25 04:55:56;;;;;;;;;;;;;;;;;;5055697;28;1397;-79
2021/01/25 04:58:22;;;;;;;;;;;;;;;;;;5055587;28;881;-78
2021/01/25 05:00:47;;;;;;;;;;;;;;;;;;5055667;28;1132;-78
2021/01/25 05:03:12;;;;;;;;;;;;;;;;;;5055512;28;1956;-79
2021/01/25 05:05:38;;;;;;;;;;;;;;;;;;5054117;28;1721;-79
2021/01/25 05:08:03;;;;;;;;;;;;;;;;;;5055685;28;794;-78
2021/01/25 05:10:29;;;;;;;;;;;;;;;;;;5054303;28;1308;-78
2021/01/25 05:12:54;;;;;;;;;;;;;;;;;;5055251;28;806;-78
2021/01/25 05:15:32;;;;;;;;;;;;;;;;;;5054083;28;1282;-78
2021/01/25 05:18:02;;;;;;;;;;;;;;;;;;5054926;28;934;-79
2021/01/25 05:20:28;;;;;;;;;;;;;;;;;;5054110;28;818;-78
2021/01/25 05:22:54;;;;;;;;;;;;;;;;;;5054940;28;1898;-78
2021/01/25 05:25:23;;;;;;;;;;;;;;;;;;5055105;28;1413;-78
2021/01/25 05:27:49;;;;;;;;;;;;;;;;;;5055255;28;861;-78
2021/01/25 05:30:14;;;;;;;;;;;;;;;;;;5054902;28;856;-78
2021/01/25 05:32:47;;;;;;;;;;;;;;;;;;5053787;28;1650;-78
2021/01/25 05:35:13;;;;;;;;;;;;;;;;;;5054995;28;1352;-78
2021/01/25 05:37:40;;;;;;;;;;;;;;;;;;5054987;28;929;-78
2021/01/25 05:40:06;;;;;;;;;;;;;;;;;;5054845;28;873;-79
2021/01/25 05:42:32;;;;;;;;;;;;;;;;;;5054215;28;1902;-78
2021/01/25 05:45:03;;;;;;;;;;;;;;;;;;5054803;28;1365;-78
2021/01/25 05:47:28;;;;;;;;;;;;;;;;;;5054840;28;929;-78
2021/01/25 05:49:53;;;;;;;;;;;;;;;;;;5053617;28;1012;-78
2021/01/25 05:52:19;;;;;;;;;;;;;;;;;;5054696;28;1137;-78
2021/01/25 05:54:44;;;;;;;;;;;;;;;;;;5053392;28;1377;-78
2021/01/25 05:57:09;;;;;;;;;;;;;;;;;;5054640;28;786;-79
2021/01/25 05:59:34;;;;;;;;;;;;;;;;;;5054674;28;834;-78
2021/01/25 06:02:01;;;;;;;;;;;;;;;;;;5054256;28;1897;-77
2021/01/25 06:04:26;;;;;;;;;;;;;;;;;;5053026;28;1214;-78
2021/01/25 06:06:52;;;;;;;;;;;;;;;;;;5053222;28;1601;-78
2021/01/25 06:09:19;;;;;;;;;;;;;;;;;;5054598;28;830;-78
2021/01/25 06:11:45;;;;;;;;;;;;;;;;;;5054348;28;825;-78
2021/01/25 06:14:18;;;;;;;;;;;;;;;;;;5054272;28;874;-79
2021/01/25 06:16:48;;;;;;;;;;;;;;;;;;5054616;28;1464;-79
2021/01/25 06:19:14;;;;;;;;;;;;;;;;;;5054412;28;873;-78
2021/01/25 06:21:40;;;;;;;;;;;;;;;;;;5053399;28;1898;-78
2021/01/25 06:24:06;;;;;;;;;;;;;;;;;;5052786;28;1233;-78
2021/01/25 06:26:32;;;;;;;;;;;;;;;;;;5054196;28;1404;-78
2021/01/25 06:29:01;;;;;;;;;;;;;;;;;;5054362;28;837;-78
2021/01/25 06:31:27;;;;;;;;;;;;;;;;;;5054284;28;870;-78
2021/01/25 06:33:52;;;;;;;;;;;;;;;;;;5054094;28;853;-78
2021/01/25 06:36:18;;;;;;;;;;;;;;;;;;5054432;28;1313;-78
2021/01/25 06:38:46;;;;;;;;;;;;;;;;;;5054335;28;844;-78
2021/01/25 06:41:12;;;;;;;;;;;;;;;;;;5054165;28;952;-78
2021/01/25 06:43:40;;;;;;;;;;;;;;;;;;5054032;28;1974;-78
2021/01/25 06:46:05;;;;;;;;;;;;;;;;;;5054227;28;1412;-78
2021/01/25 06:48:30;;;;;;;;;;;;;;;;;;5054186;28;908;-78
2021/01/25 06:50:59;;;;;;;;;;;;;;;;;;5054174;28;968;-78
2021/01/25 06:53:25;;;;;;;;;;;;;;;;;;5055242;28;917;-77
2021/01/25 06:55:57;;;;;;;;;;;;;;;;;;5057884;28;1330;-78
2021/01/25 06:58:24;;;;;;;;;;;;;;;;;;5057894;28;861;-78
2021/01/25 07:00:51;;;;;;;;;;;;;;;;;;5056960;28;1125;-78
2021/01/25 07:03:20;;;;;;;;;;;;;;;;;;5057764;28;1972;-77
2021/01/25 07:05:48;;;;;;;;;;;;;;;;;;5057818;28;1271;-77
2021/01/25 07:08:17;;;;;;;;;;;;;;;;;;5057607;28;809;-78
2021/01/25 07:10:58;;;;;;;;;;;;;;;;;;5057920;28;883;-78
2021/01/25 07:13:24;;;;;;;;;;;;;;;;;;5057643;28;885;-77
2021/01/25 07:15:50;;;;;;;;;;;;;;;;;;5056355;28;1472;-77
2021/01/25 07:18:15;;;;;;;;;;;;;;;;;;5057523;28;930;-77
2021/01/25 07:20:45;;;;;;;;;;;;;;;;;;5056168;28;1322;-77
2021/01/25 07:23:12;;;;;;;;;;;;;;;;;;5057370;28;1910;-77
2021/01/25 07:25:37;;;;;;;;;;;;;;;;;;5057470;28;1400;-77
2021/01/25 07:28:03;;;;;;;;;;;;;;;;;;5057372;28;814;-77
2021/01/25 07:30:32;;;;;;;;;;;;;;;;;;5057521;28;877;-77
2021/01/25 07:33:00;;;;;;;;;;;;;;;;;;5057421;28;821;-77
2021/01/25 07:35:29;;;;;;;;;;;;;;;;;;5057212;28;1302;-77
2021/01/25 07:37:54;;;;;;;;;;;;;;;;;;5057141;28;869;-77
2021/01/25 07:40:23;;;;;;;;;;;;;;;;;;5057296;28;904;-77
2021/01/25 07:42:48;;;;;;;;;;;;;;;;;;5056869;28;1898;-77
2021/01/25 07:45:14;;;;;;;;;;;;;;;;;;5057027;28;1278;-77
2021/01/25 07:47:43;;;;;;;;;;;;;;;;;;5056922;28;857;-77
2021/01/25 07:50:09;;;;;;;;;;;;;;;;;;5057236;28;877;-77
2021/01/25 07:52:34;;;;;;;;;;;;;;;;;;5056850;28;893;-77
2021/01/25 07:55:09;;;;;;;;;;;;;;;;;;5055631;28;1451;-77
2021/01/25 07:57:34;;;;;;;;;;;;;;;;;;5056965;28;892;-77
2021/01/25 07:59:59;;;;;;;;;;;;;;;;;;5056656;28;948;-77
2021/01/25 08:02:26;;;;;;;;;;;;;;;;;;5055324;28;1889;-76
2021/01/25 08:04:51;;;;;;;;;;;;;;;;;;5056228;28;1302;-77
2021/01/25 08:07:18;;;;;;;;;;;;;;;;;;5055725;28;1119;-76
2021/01/25 08:09:44;;;;;;;;;;;;;;;;;;5056781;28;860;-74
2021/01/25 08:12:10;;;;;;;;;;;;;;;;;;5056354;28;912;-75
2021/01/25 08:15:00;;;;;;;;;;;;;;;;;;5055263;28;1757;-74
2021/01/25 08:17:30;;;;;;;;;;;;;;;;;;5056295;28;1216;-74
2021/01/25 08:20:03;;;;;;;;;;;;;;;;;;5055085;28;818;-74
2021/01/25 08:22:34;;;;;;;;;;;;;;;;;;5054931;28;1902;-74
2021/01/25 08:25:01;;;;;;;;;;;;;;;;;;5056231;28;1294;-74
2021/01/25 08:27:27;;;;;;;;;;;;;;;;;;5056099;28;944;-76
2021/01/25 08:29:59;;;;;;;;;;;;;;;;;;5056160;28;1077;-77
2021/01/25 08:32:26;;;;;;;;;;;;;;;;;;5056288;28;810;-77
2021/01/25 08:34:59;;;;;;;;;;;;;;;;;;5056136;28;1306;-77
2021/01/25 08:37:26;;;;;;;;;;;;;;;;;;5056276;28;790;-77
2021/01/25 08:39:51;;;;;;;;;;;;;;;;;;5055988;28;889;-76
2021/01/25 08:42:18;;;;;;;;;;;;;;;;;;5054582;28;1890;-76
2021/01/25 08:44:55;;;;;;;;;;;;;;;;;;5055708;28;1262;-77
2021/01/25 08:47:25;;;;;;;;;;;;;;;;;;5056143;28;913;-77
2021/01/25 08:49:51;;;;;;;;;;;;;;;;;;5054663;28;2249;-77
2021/01/25 08:52:25;;;;;;;;;;;;;;;;;;5055820;28;789;-76
2021/01/25 08:54:51;;;;;;;;;;;;;;;;;;5055743;28;1429;-77
2021/01/25 08:57:21;;;;;;;;;;;;;;;;;;5054261;28;988;-76
2021/01/25 08:59:47;;;;;;;;;;;;;;;;;;5055675;28;810;-76
2021/01/25 09:02:15;;;;;;;;;;;;;;;;;;5054178;28;1956;-77
2021/01/25 09:04:40;;;;;;;;;;;;;;;;;;5055580;28;1405;-77
2021/01/25 09:07:09;;;;;;;;;;;;;;;;;;5054149;28;1182;-77
2021/01/25 09:09:34;;;;;;;;;;;;;;;;;;5055571;28;841;-77
2021/01/25 09:12:00;;;;;;;;;;;;;;;;;;5055402;28;1031;-77
2021/01/25 09:14:25;;;;;;;;;;;;;;;;;;5054161;28;829;-75
2021/01/25 09:16:50;;;;;;;;;;;;;;;;;;5054622;28;1313;-76
2021/01/25 09:19:16;;;;;;;;;;;;;;;;;;5054149;28;1203;-77
2021/01/25 09:21:41;;;;;;;;;;;;;;;;;;5053745;28;1965;-77
2021/01/25 09:24:07;;;;;;;;;;;;;;;;;;5055053;28;814;-76
2021/01/25 09:26:32;;;;;;;;;;;;;;;;;;5053807;28;1448;-76
2021/01/25 09:28:57;;;;;;;;;;;;;;;;;;5055356;28;794;-76
2021/01/25 09:31:26;;;;;;;;;;;;;;;;;;5054929;28;794;-76
2021/01/25 09:33:51;;;;;;;;;;;;;;;;;;5055031;28;916;-76
2021/01/25 09:36:17;;;;;;;;;;;;;;;;;;5054813;28;1359;-76
2021/01/25 09:38:42;;;;;;;;;;;;;;;;;;5055191;28;976;-76
2021/01/25 09:41:07;;;;;;;;;;;;;;;;;;5054750;28;959;-76
2021/01/25 09:43:33;;;;;;;;;;;;;;;;;;5054858;28;1894;-76
2021/01/25 09:45:58;;;;;;;;;;;;;;;;;;5054766;28;1428;-73
2021/01/25 09:48:23;;;;;;;;;;;;;;;;;;5054747;28;849;-72
2021/01/25 09:50:48;;;;;;;;;;;;;;;;;;5054506;28;924;-72
2021/01/25 09:53:14;;;;;;;;;;;;;;;;;;5054547;28;837;-72
2021/01/25 09:55:40;;;;;;;;;;;;;;;;;;5053453;28;1365;-72
2021/01/25 09:58:05;;;;;;;;;;;;;;;;;;5054625;28;853;-72
2021/01/25 10:00:30;;;;;;;;;;;;;;;;;;5054723;28;845;-72
2021/01/25 10:02:56;;;;;;;;;;;;;;;;;;5052859;28;1890;-72
2021/01/25 10:05:21;;;;;;;;;;;;;;;;;;5053439;28;1330;-71
2021/01/25 10:07:46;;;;;;;;;;;;;;;;;;5054626;28;817;-71
2021/01/25 10:10:13;;;;;;;;;;;;;;;;;;5053324;28;1311;-71
2021/01/25 10:12:38;;;;;;;;;;;;;;;;;;5053329;28;1202;-71
2021/01/25 10:15:05;;;;;;;;;;;;;;;;;;5053006;28;1338;-71
2021/01/25 10:17:30;;;;;;;;;;;;;;;;;;5053105;28;1098;-71
2021/01/25 10:19:55;;;;;;;;;;;;;;;;;;5054496;28;866;-71
2021/01/25 10:22:21;;;;;;;;;;;;;;;;;;5053077;28;1906;-71
2021/01/25 10:24:46;;;;;;;;;;;;;;;;;;5052972;28;1298;-71
2021/01/25 10:27:11;;;;;;;;;;;;;;;;;;5055175;28;948;-71
2021/01/25 10:29:36;;;;;;;;;;;;;;;;;;5058509;28;896;-71
2021/01/25 10:32:02;;;;;;;;;;;;;;;;;;5057269;28;857;-71
2021/01/25 10:34:27;;;;;;;;;;;;;;;;;;5057163;28;1599;-71
2021/01/25 10:36:52;;;;;;;;;;;;;;;;;;5057614;28;1463;-72
2021/01/25 10:39:18;;;;;;;;;;;;;;;;;;5063239;28;1450;-72
2021/01/25 10:41:43;;;;;;;;;;;;;;;;;;5068462;28;1967;-73
2021/01/25 10:44:09;;;;;;;;;;;;;;;;;;5061377;28;1945;-72
2021/01/25 10:46:34;;;;;;;;;;;;;;;;;;5061640;28;1662;-72
2021/01/25 10:48:59;;;;;;;;;;;;;;;;;;5058196;28;1761;-73
2021/01/25 10:51:24;;;;;;;;;;;;;;;;;;5063318;28;1463;-74
2021/01/25 10:53:49;;;;;;;;;;;;;;;;;;5068450;28;1631;-77
2021/01/25 10:56:15;;;;;;;;;;;;;;;;;;5069169;28;1640;-75
2021/01/25 10:58:40;;;;;;;;;;;;;;;;;;5074736;28;1565;-74
2021/01/25 11:01:05;;;;;;;;;;;;;;;;;;5077902;28;821;-75
2021/01/25 11:03:30;;;;;;;;;;;;;;;;;;5077615;28;1894;-75
2021/01/25 11:05:56;;;;;;;;;;;;;;;;;;5076138;28;1376;-75
2021/01/25 11:08:21;;;;;;;;;;;;;;;;;;5076793;28;1329;-74
2021/01/25 11:10:46;;;;;;;;;;;;;;;;;;5076447;28;1329;-75
2021/01/25 11:13:11;;;;;;;;;;;;;;;;;;5077543;28;857;-75
2021/01/25 11:15:37;;;;;;;;;;;;;;;;;;5077626;28;1285;-75
2021/01/25 11:18:02;;;;;;;;;;;;;;;;;;5076321;28;1228;-75
2021/01/25 11:20:28;;;;;;;;;;;;;;;;;;5077552;28;924;-74
2021/01/25 11:22:53;;;;;;;;;;;;;;;;;;5077305;28;1894;-75
2021/01/25 11:25:18;;;;;;;;;;;;;;;;;;5077368;28;1306;-74
2021/01/25 11:27:43;;;;;;;;;;;;;;;;;;5077475;28;952;-75
2021/01/25 11:30:09;;;;;;;;;;;;;;;;;;5077206;28;920;-75
2021/01/25 11:32:34;;;;;;;;;;;;;;;;;;5077334;28;1140;-75
2021/01/25 11:35:00;;;;;;;;;;;;;;;;;;5077252;28;1333;-75
2021/01/25 11:37:25;;;;;;;;;;;;;;;;;;5077320;28;1145;-75
2021/01/25 11:39:50;;;;;;;;;;;;;;;;;;5076346;28;865;-74
2021/01/25 11:42:15;;;;;;;;;;;;;;;;;;5076745;28;1894;-75
2021/01/25 11:44:41;;;;;;;;;;;;;;;;;;5077151;28;1354;-75
2021/01/25 11:47:06;;;;;;;;;;;;;;;;;;5077127;28;983;-75
2021/01/25 11:49:31;;;;;;;;;;;;;;;;;;5076967;28;782;-74
2021/01/25 11:51:57;;;;;;;;;;;;;;;;;;5076913;28;876;-74
2021/01/25 11:54:22;;;;;;;;;;;;;;;;;;5076065;28;1245;-74
2021/01/25 11:56:47;;;;;;;;;;;;;;;;;;5076868;28;1428;-75
2021/01/25 11:59:13;;;;;;;;;;;;;;;;;;5077155;28;814;-75
2021/01/25 12:01:38;;;;;;;;;;;;;;;;;;5076861;28;1902;-75
2021/01/25 12:04:04;;;;;;;;;;;;;;;;;;5076431;28;832;-75
2021/01/25 12:06:29;;;;;;;;;;;;;;;;;;5076612;28;1313;-74
2021/01/25 12:08:55;;;;;;;;;;;;;;;;;;5076867;28;1051;-74
2021/01/25 12:11:20;;;;;;;;;;;;;;;;;;5076748;28;829;-74
2021/01/25 12:13:45;;;;;;;;;;;;;;;;;;5076389;28;894;-74
2021/01/25 12:16:15;;;;;;;;;;;;;;;;;;5074944;28;1381;-75
2021/01/25 12:18:40;;;;;;;;;;;;;;;;;;5076479;28;949;-75
2021/01/25 12:21:05;;;;;;;;;;;;;;;;;;5076649;28;813;-75
2021/01/25 12:23:30;;;;;;;;;;;;;;;;;;5075976;28;1963;-74
2021/01/25 12:25:56;;;;;;;;;;;;;;;;;;5076458;28;1314;-74
2021/01/25 12:28:21;;;;;;;;;;;;;;;;;;5076349;28;900;-74
2021/01/25 12:30:46;;;;;;;;;;;;;;;;;;5076340;28;885;-75
2021/01/25 12:33:11;;;;;;;;;;;;;;;;;;5074723;28;951;-75
2021/01/25 12:35:37;;;;;;;;;;;;;;;;;;5076314;28;1432;-74
2021/01/25 12:38:03;;;;;;;;;;;;;;;;;;5074603;28;932;-74
2021/01/25 12:40:28;;;;;;;;;;;;;;;;;;5074985;28;1670;-74
2021/01/25 12:42:53;;;;;;;;;;;;;;;;;;5075836;28;1969;-75
2021/01/25 12:45:20;;;;;;;;;;;;;;;;;;5074677;28;1282;-74
2021/01/25 12:47:45;;;;;;;;;;;;;;;;;;5075966;28;795;-75
2021/01/25 12:50:10;;;;;;;;;;;;;;;;;;5074692;28;817;-74
2021/01/25 12:52:36;;;;;;;;;;;;;;;;;;5075822;28;809;-74
2021/01/25 12:55:08;;;;;;;;;;;;;;;;;;5075781;28;1274;-74
2021/01/25 12:57:34;;;;;;;;;;;;;;;;;;5074220;28;833;-74
2021/01/25 12:59:59;;;;;;;;;;;;;;;;;;5075994;28;872;-75
2021/01/25 13:02:24;;;;;;;;;;;;;;;;;;5074198;28;1967;-74
2021/01/25 13:04:50;;;;;;;;;;;;;;;;;;5075635;28;1380;-74
2021/01/25 13:07:15;;;;;;;;;;;;;;;;;;5075669;28;809;-74
2021/01/25 13:09:40;;;;;;;;;;;;;;;;;;5075334;28;889;-75
2021/01/25 13:12:06;;;;;;;;;;;;;;;;;;5075367;28;876;-74
2021/01/25 13:14:31;;;;;;;;;;;;;;;;;;5075410;28;874;-74
2021/01/25 13:16:56;;;;;;;;;;;;;;;;;;5075233;28;1325;-74
2021/01/25 13:19:21;;;;;;;;;;;;;;;;;;5075205;28;818;-74
2021/01/25 13:21:47;;;;;;;;;;;;;;;;;;5067138;28;1969;-75
2021/01/25 13:24:12;;;;;;;;;;;;;;;;;;5064663;28;1568;-74
2021/01/25 13:26:37;;;;;;;;;;;;;;;;;;5065770;28;1537;-74
2021/01/25 13:29:02;;;;;;;;;;;;;;;;;;5074609;28;866;-75
2021/01/25 13:31:28;;;;;;;;;;;;;;;;;;5074706;28;833;-74
2021/01/25 13:33:53;;;;;;;;;;;;;;;;;;5065562;28;2193;-74
2021/01/25 13:36:18;;;;;;;;;;;;;;;;;;5058073;28;1385;-74
2021/01/25 13:38:44;;;;;;;;;;;;;;;;;;5055060;28;877;-74
2021/01/25 13:41:11;;;;;;;;;;;;;;;;;;5054674;28;896;-74
2021/01/25 13:43:37;;;;;;;;;;;;;;;;;;5053043;28;1957;-74
2021/01/25 13:46:02;;;;;;;;;;;;;;;;;;5054489;28;1325;-74
2021/01/25 13:48:27;;;;;;;;;;;;;;;;;;5053480;28;960;-74
2021/01/25 13:50:53;;;;;;;;;;;;;;;;;;5054873;28;837;-74
2021/01/25 13:53:18;;;;;;;;;;;;;;;;;;5052664;28;1211;-74
2021/01/25 13:55:43;;;;;;;;;;;;;;;;;;5054511;28;1317;-74
2021/01/25 13:58:08;;;;;;;;;;;;;;;;;;5054673;28;888;-74
2021/01/25 14:00:34;;;;;;;;;;;;;;;;;;5054565;28;798;-74
2021/01/25 14:02:59;;;;;;;;;;;;;;;;;;5053250;28;1960;-74
2021/01/25 14:05:24;;;;;;;;;;;;;;;;;;5054645;28;1437;-74
2021/01/25 14:07:50;;;;;;;;;;;;;;;;;;5053265;28;1266;-74
2021/01/25 14:10:16;;;;;;;;;;;;;;;;;;5054565;28;875;-75
2021/01/25 14:12:42;;;;;;;;;;;;;;;;;;5053815;28;912;-74
2021/01/25 14:15:08;;;;;;;;;;;;;;;;;;5053037;28;1309;-74
2021/01/25 14:17:34;;;;;;;;;;;;;;;;;;5054164;28;960;-74
2021/01/25 14:19:59;;;;;;;;;;;;;;;;;;5054694;28;892;-74
2021/01/25 14:22:24;;;;;;;;;;;;;;;;;;5054104;28;1947;-74
2021/01/25 14:24:49;;;;;;;;;;;;;;;;;;5036517;28;2597;-74
2021/01/25 14:27:15;;;;;;;;;;;;;;;;;;5054293;28;885;-74
2021/01/25 14:29:40;;;;;;;;;;;;;;;;;;5052899;28;1438;-74
2021/01/25 14:32:07;;;;;;;;;;;;;;;;;;5054183;28;790;-74
2021/01/25 14:34:32;;;;;;;;;;;;;;;;;;5054275;28;1305;-74
2021/01/25 14:36:57;;;;;;;;;;;;;;;;;;5054149;28;884;-74
2021/01/25 14:39:22;;;;;;;;;;;;;;;;;;5054260;28;869;-74
2021/01/25 14:41:48;;;;;;;;;;;;;;;;;;5054080;28;1902;-75
2021/01/25 14:44:13;;;;;;;;;;;;;;;;;;5052792;28;1723;-75
2021/01/25 14:46:38;;;;;;;;;;;;;;;;;;5053901;28;1433;-75
2021/01/25 14:49:04;;;;;;;;;;;;;;;;;;5054009;28;897;-75
2021/01/25 14:51:29;;;;;;;;;;;;;;;;;;5053848;28;802;-74
2021/01/25 14:53:54;;;;;;;;;;;;;;;;;;5053782;28;963;-74
2021/01/25 14:56:19;;;;;;;;;;;;;;;;;;5052688;28;1385;-74
2021/01/25 14:58:45;;;;;;;;;;;;;;;;;;5052690;28;1547;-74
2021/01/25 15:01:10;;;;;;;;;;;;;;;;;;5055960;28;1905;-74
2021/01/25 15:03:36;;;;;;;;;;;;;;;;;;5062515;28;1898;-74
2021/01/25 15:06:01;;;;;;;;;;;;;;;;;;5073806;28;1405;-74
2021/01/25 15:08:27;;;;;;;;;;;;;;;;;;5072667;28;1282;-73
2021/01/25 15:10:53;;;;;;;;;;;;;;;;;;5072716;28;1688;-73
2021/01/25 15:13:18;;;;;;;;;;;;;;;;;;5073791;28;893;-74
2021/01/25 15:15:43;;;;;;;;;;;;;;;;;;5075766;28;1389;-74
2021/01/25 15:18:09;;;;;;;;;;;;;;;;;;5077546;28;976;-74
2021/01/25 15:20:34;;;;;;;;;;;;;;;;;;5077539;28;833;-74
2021/01/25 15:23:03;;;;;;;;;;;;;;;;;;5077487;28;1906;-74
2021/01/25 15:25:30;;;;;;;;;;;;;;;;;;5077577;28;1298;-74
2021/01/25 15:27:56;;;;;;;;;;;;;;;;;;5077611;28;876;-75
2021/01/25 15:30:21;;;;;;;;;;;;;;;;;;5077353;28;842;-75
2021/01/25 15:32:47;;;;;;;;;;;;;;;;;;5076894;28;832;-75
2021/01/25 15:35:13;;;;;;;;;;;;;;;;;;5077282;28;1353;-75
2021/01/25 15:37:38;;;;;;;;;;;;;;;;;;5076111;28;1198;-75
2021/01/25 15:40:04;;;;;;;;;;;;;;;;;;5077510;28;927;-75
2021/01/25 15:42:29;;;;;;;;;;;;;;;;;;5076797;28;1890;-75
2021/01/25 15:44:55;;;;;;;;;;;;;;;;;;5077124;28;1377;-75
2021/01/25 15:47:20;;;;;;;;;;;;;;;;;;5077218;28;1308;-76
2021/01/25 15:49:45;;;;;;;;;;;;;;;;;;5077161;28;894;-76
2021/01/25 15:52:11;;;;;;;;;;;;;;;;;;5075876;28;1230;-76
2021/01/25 15:54:36;;;;;;;;;;;;;;;;;;5076769;28;1432;-76
2021/01/25 15:57:02;;;;;;;;;;;;;;;;;;5077062;28;864;-76
2021/01/25 15:59:27;;;;;;;;;;;;;;;;;;5076961;28;884;-76
2021/01/25 16:01:52;;;;;;;;;;;;;;;;;;5076875;28;1964;-76
2021/01/25 16:04:18;;;;;;;;;;;;;;;;;;5075510;28;806;-77
2021/01/25 16:06:43;;;;;;;;;;;;;;;;;;5076849;28;1301;-76
2021/01/25 16:09:08;;;;;;;;;;;;;;;;;;5075331;28;856;-76
2021/01/25 16:11:34;;;;;;;;;;;;;;;;;;5076549;28;884;-77
2021/01/25 16:13:59;;;;;;;;;;;;;;;;;;5076285;28;947;-76
2021/01/25 16:16:25;;;;;;;;;;;;;;;;;;5075859;28;1274;-76
2021/01/25 16:18:50;;;;;;;;;;;;;;;;;;5076214;28;1142;-76
2021/01/25 16:21:15;;;;;;;;;;;;;;;;;;5076673;28;834;-76
2021/01/25 16:23:41;;;;;;;;;;;;;;;;;;5076232;28;1906;-76
2021/01/25 16:26:07;;;;;;;;;;;;;;;;;;5076164;28;1424;-76
2021/01/25 16:28:32;;;;;;;;;;;;;;;;;;5076185;28;944;-76
2021/01/25 16:30:57;;;;;;;;;;;;;;;;;;5076413;28;976;-75
2021/01/25 16:33:23;;;;;;;;;;;;;;;;;;5075965;28;872;-75
2021/01/25 16:35:50;;;;;;;;;;;;;;;;;;5076168;28;1397;-76
2021/01/25 16:38:15;;;;;;;;;;;;;;;;;;5074765;28;1159;-76
2021/01/25 16:40:44;;;;;;;;;;;;;;;;;;5076137;28;861;-75
2021/01/25 16:43:14;;;;;;;;;;;;;;;;;;5076011;28;1890;-75
2021/01/25 16:45:39;;;;;;;;;;;;;;;;;;5076062;28;1326;-76
2021/01/25 16:48:06;;;;;;;;;;;;;;;;;;5070227;28;1362;-76
2021/01/25 16:50:31;;;;;;;;;;;;;;;;;;5067585;28;1577;-76
2021/01/25 16:52:56;;;;;;;;;;;;;;;;;;5067141;28;1996;-76
2021/01/25 16:55:22;;;;;;;;;;;;;;;;;;5055733;28;1338;-76
2021/01/25 16:57:47;;;;;;;;;;;;;;;;;;5055680;28;946;-76
2021/01/25 17:00:13;;;;;;;;;;;;;;;;;;5055611;28;1216;-77
2021/01/25 17:02:38;;;;;;;;;;;;;;;;;;5054207;28;1906;-76